createdAt,value
2022-11-28T00:01:17.626Z,5.71
2022-11-28T00:05:19.521Z,5.69
2022-11-28T00:09:21.095Z,5.67
2022-11-28T00:13:20.613Z,5.68
2022-11-28T00:17:19.933Z,5.55
2022-11-28T00:21:21.618Z,5.60
2022-11-28T00:25:21.476Z,5.52
2022-11-28T00:29:21.095Z,5.50
2022-11-28T00:33:20.026Z,5.22
2022-11-28T00:37:21.554Z,5.56
2022-11-28T00:41:23.423Z,5.53
2022-11-28T00:45:22.639Z,5.37
2022-11-28T00:49:22.193Z,5.47
2022-11-28T00:53:23.853Z,5.24
2022-11-28T00:57:23.407Z,5.51
2022-11-28T01:01:23.608Z,5.48
2022-11-28T01:05:23.213Z,5.53
2022-11-28T01:09:25.468Z,5.47
2022-11-28T01:13:25.060Z,5.60
2022-11-28T01:17:24.306Z,5.53
2022-11-28T01:21:23.991Z,5.40
2022-11-28T01:25:25.821Z,5.37
2022-11-28T01:29:25.515Z,5.23
2022-11-28T01:33:24.777Z,5.21
2022-11-28T01:37:24.353Z,5.28
2022-11-28T01:41:27.225Z,5.10
2022-11-28T01:45:29.951Z,5.27
2022-11-28T01:49:33.667Z,5.15
2022-11-28T01:53:36.748Z,5.08
2022-11-28T01:57:38.727Z,5.17
2022-11-28T02:01:39.203Z,5.02
2022-11-28T02:05:39.093Z,5.02
2022-11-28T02:09:38.142Z,4.86
2022-11-28T02:13:43.967Z,4.79
2022-11-28T02:17:58.348Z,4.98
2022-11-28T02:22:02.935Z,4.75
2022-11-28T02:26:42.761Z,4.63
2022-11-28T02:30:56.409Z,4.70
2022-11-28T02:35:04.859Z,4.81
2022-11-28T02:39:13.447Z,4.85
2022-11-28T02:43:22.192Z,4.87
2022-11-28T02:47:28.325Z,4.93
2022-11-28T02:51:34.836Z,4.94
2022-11-28T02:55:34.613Z,4.68
2022-11-28T02:59:46.369Z,4.80
2022-11-28T03:04:01.113Z,4.91
2022-11-28T03:08:12.695Z,4.76
2022-11-28T03:12:23.058Z,4.83
2022-11-28T03:16:30.437Z,4.73
2022-11-28T03:20:38.482Z,4.80
2022-11-28T03:24:46.262Z,4.85
2022-11-28T03:28:53.928Z,4.89
2022-11-28T03:32:56.858Z,4.63
2022-11-28T03:37:01.925Z,4.86
2022-11-28T03:41:09.712Z,4.85
2022-11-28T03:45:14.533Z,4.92
2022-11-28T03:49:17.908Z,4.85
2022-11-28T03:53:23.915Z,4.90
2022-11-28T03:57:33.540Z,4.92
2022-11-28T04:01:36.670Z,4.90
2022-11-28T04:05:46.512Z,4.87
2022-11-28T04:09:49.806Z,4.70
2022-11-28T04:13:58.394Z,4.68
2022-11-28T04:18:02.800Z,4.64
2022-11-28T04:22:06.670Z,4.38
2022-11-28T04:26:12.625Z,4.70
2022-11-28T04:30:15.486Z,4.69
2022-11-28T04:34:19.195Z,4.85
2022-11-28T04:38:19.610Z,4.74
2022-11-28T04:42:22.672Z,4.74
2022-11-28T04:46:27.899Z,4.84
2022-11-28T04:50:33.054Z,4.76
2022-11-28T04:54:40.136Z,4.65
2022-11-28T04:58:43.992Z,4.82
2022-11-28T05:02:48.180Z,5.02
2022-11-28T05:06:47.905Z,4.95
2022-11-28T05:10:48.469Z,4.75
2022-11-28T05:14:48.162Z,4.62
2022-11-28T05:18:50.200Z,4.86
2022-11-28T05:22:49.778Z,4.92
2022-11-28T05:26:49.450Z,4.92
2022-11-28T05:30:57.927Z,4.99
2022-11-28T05:34:59.812Z,5.04
2022-11-28T05:38:59.405Z,5.00
2022-11-28T05:42:58.441Z,4.91
2022-11-28T05:46:57.953Z,4.82
2022-11-28T05:50:59.353Z,4.79
2022-11-28T05:54:59.630Z,4.85
2022-11-28T05:58:59.558Z,4.68
2022-11-28T06:03:02.367Z,4.77
2022-11-28T06:07:04.096Z,4.80
2022-11-28T06:11:03.683Z,4.94
2022-11-28T06:15:02.963Z,4.96
2022-11-28T06:19:04.523Z,5.04
2022-11-28T06:23:06.833Z,4.91
2022-11-28T06:27:06.670Z,4.80
2022-11-28T06:31:06.500Z,5.22
2022-11-28T06:35:06.416Z,5.08
2022-11-28T06:39:12.615Z,5.22
2022-11-28T06:43:12.264Z,5.18
2022-11-28T06:47:11.720Z,5.18
2022-11-28T06:51:11.549Z,5.01
2022-11-28T06:55:13.424Z,5.02
2022-11-28T06:59:14.080Z,4.83
2022-11-28T07:03:14.190Z,5.01
2022-11-28T07:07:16.685Z,5.00
2022-11-28T07:11:20.632Z,4.99
2022-11-28T07:15:20.293Z,5.06
2022-11-28T07:19:22.769Z,5.14
2022-11-28T07:23:22.384Z,5.21
2022-11-28T07:27:23.843Z,5.16
2022-11-28T07:31:31.219Z,5.12
2022-11-28T07:35:30.314Z,5.15
2022-11-28T07:39:30.199Z,4.97
2022-11-28T07:43:32.094Z,5.14
2022-11-28T07:47:31.603Z,5.18
2022-11-28T07:51:32.152Z,5.23
2022-11-28T07:55:31.678Z,5.31
2022-11-28T07:59:33.342Z,5.47
2022-11-28T08:03:32.825Z,5.27
2022-11-28T08:07:37.863Z,5.28
2022-11-28T08:11:50.947Z,5.46
2022-11-28T08:15:52.700Z,5.70
2022-11-28T08:19:52.253Z,5.29
2022-11-28T08:23:52.555Z,5.37
2022-11-28T08:27:52.177Z,5.74
2022-11-28T08:31:53.608Z,5.76
2022-11-28T08:35:53.549Z,5.65
2022-11-28T08:39:53.166Z,5.41
2022-11-28T08:43:52.496Z,5.41
2022-11-28T08:47:54.547Z,5.49
2022-11-28T08:51:54.100Z,5.65
2022-11-28T08:55:53.714Z,5.40
2022-11-28T08:59:52.984Z,5.53
2022-11-28T09:03:55.867Z,5.57
2022-11-28T09:07:56.718Z,5.35
2022-11-28T09:11:56.346Z,5.52
2022-11-28T09:15:55.431Z,5.45
2022-11-28T09:19:57.257Z,5.36
2022-11-28T09:23:58.182Z,5.71
2022-11-28T09:27:57.679Z,5.81
2022-11-28T09:31:56.785Z,5.79
2022-11-28T09:35:58.286Z,5.85
2022-11-28T09:40:12.506Z,5.96
2022-11-28T09:44:20.845Z,5.95
2022-11-28T09:48:28.262Z,6.08
2022-11-28T09:52:35.833Z,6.24
2022-11-28T09:56:35.576Z,5.94
2022-11-28T10:00:40.041Z,6.20
2022-11-28T10:04:46.565Z,6.05
2022-11-28T10:09:10.016Z,5.97
2022-11-28T10:13:17.041Z,6.05
2022-11-28T10:17:26.848Z,6.14
2022-11-28T10:21:32.737Z,6.20
2022-11-28T10:25:37.364Z,6.17
2022-11-28T10:29:58.301Z,6.17
2022-11-28T10:34:02.843Z,6.26
2022-11-28T10:38:02.550Z,6.10
2022-11-28T10:42:15.846Z,6.19
2022-11-28T10:46:37.650Z,6.63
2022-11-28T10:50:44.872Z,6.51
2022-11-28T10:55:15.654Z,6.53
2022-11-28T10:59:30.753Z,6.41
2022-11-28T11:03:32.567Z,6.35
2022-11-28T11:07:33.877Z,6.59
2022-11-28T11:11:39.132Z,6.96
2022-11-28T11:15:40.918Z,6.84
2022-11-28T11:19:41.878Z,6.60
2022-11-28T11:23:41.605Z,6.43
2022-11-28T11:27:50.116Z,6.40
2022-11-28T11:31:55.106Z,6.53
2022-11-28T11:35:54.606Z,6.44
2022-11-28T11:39:55.243Z,6.40
2022-11-28T11:43:54.303Z,6.48
2022-11-28T11:47:56.063Z,6.62
2022-11-28T11:51:58.569Z,6.70
2022-11-28T11:56:02.289Z,6.66
2022-11-28T12:00:08.709Z,6.62
2022-11-28T12:04:43.941Z,6.65
2022-11-28T12:08:46.037Z,6.47
2022-11-28T12:12:45.552Z,6.51
2022-11-28T12:16:54.538Z,6.22
2022-11-28T12:21:12.386Z,6.39
2022-11-28T12:25:24.447Z,6.37
2022-11-28T12:29:32.921Z,6.36
2022-11-28T12:33:47.268Z,6.44
2022-11-28T12:38:13.064Z,6.31
2022-11-28T12:42:24.693Z,6.30
2022-11-28T12:46:36.977Z,6.53
2022-11-28T12:50:40.452Z,6.57
2022-11-28T12:55:09.822Z,6.59
2022-11-28T12:59:25.829Z,6.54
2022-11-28T13:03:40.658Z,6.56
2022-11-28T13:07:50.686Z,6.46
2022-11-28T13:12:06.674Z,6.06
2022-11-28T13:16:22.077Z,6.26
2022-11-28T13:20:31.352Z,6.30
2022-11-28T13:24:38.533Z,6.33
2022-11-28T13:28:46.613Z,6.31
2022-11-28T13:32:49.059Z,6.43
2022-11-28T13:42:00.930Z,6.46
2022-11-28T13:45:46.683Z,6.35
2022-11-28T13:49:45.663Z,6.37
2022-11-28T13:53:46.638Z,6.36
2022-11-28T13:57:45.696Z,6.25
2022-11-28T14:01:49.653Z,6.22
2022-11-28T14:05:49.333Z,6.31
2022-11-28T14:10:01.500Z,6.29
2022-11-28T14:14:21.024Z,6.05
2022-11-28T14:23:19.905Z,5.80
2022-11-28T14:27:23.617Z,5.83
2022-11-28T14:31:32.748Z,5.74
2022-11-28T14:36:08.085Z,5.87
2022-11-28T14:40:48.051Z,5.96
2022-11-28T14:44:50.485Z,5.93
2022-11-28T14:49:17.219Z,5.82
2022-11-28T14:53:45.219Z,5.87
2022-11-28T14:57:57.944Z,5.89
2022-11-28T15:02:05.751Z,5.84
2022-11-28T15:06:12.970Z,5.86
2022-11-28T15:10:22.516Z,5.85
2022-11-28T15:14:25.146Z,5.83
2022-11-28T15:18:27.959Z,5.75
2022-11-28T15:22:33.771Z,5.71
2022-11-28T15:26:35.671Z,5.74
2022-11-28T15:30:35.602Z,5.60
2022-11-28T15:34:36.700Z,5.64
2022-11-28T15:38:38.904Z,5.58
2022-11-28T15:42:41.336Z,5.48
2022-11-28T15:46:40.895Z,5.34
2022-11-28T15:50:51.168Z,5.38
2022-11-28T15:54:52.463Z,5.40
2022-11-28T15:58:55.731Z,5.31
2022-11-28T16:02:55.772Z,5.11
2022-11-28T16:06:58.575Z,5.07
2022-11-28T16:10:59.606Z,5.10
2022-11-28T16:15:04.795Z,5.13
2022-11-28T16:19:06.889Z,5.10
2022-11-28T16:23:12.023Z,4.86
2022-11-28T16:27:29.935Z,4.70
2022-11-28T16:31:32.015Z,4.64
2022-11-28T16:35:37.409Z,4.41
2022-11-28T16:39:37.710Z,4.53
2022-11-28T16:43:39.864Z,4.45
2022-11-28T16:47:42.032Z,4.44
2022-11-28T16:51:43.048Z,4.29
2022-11-28T16:55:46.510Z,4.23
2022-11-28T16:59:46.784Z,4.23
2022-11-28T17:03:55.123Z,4.39
2022-11-28T17:07:55.036Z,4.33
2022-11-28T17:11:59.321Z,4.35
2022-11-28T17:15:59.344Z,4.41
2022-11-28T17:20:02.678Z,4.35
2022-11-28T17:24:03.090Z,4.54
2022-11-28T17:28:02.092Z,4.38
2022-11-28T17:32:01.999Z,4.45
2022-11-28T17:36:05.629Z,4.40
2022-11-28T17:40:22.186Z,4.17
2022-11-28T17:44:24.127Z,4.20
2022-11-28T17:48:23.916Z,4.20
2022-11-28T17:52:29.749Z,3.99
2022-11-28T17:56:30.954Z,4.15
2022-11-28T18:00:32.404Z,4.17
2022-11-28T18:04:32.021Z,4.25
2022-11-28T18:08:33.816Z,4.36
2022-11-28T18:12:33.349Z,4.21
2022-11-28T18:16:32.733Z,4.09
2022-11-28T18:20:32.860Z,3.96
2022-11-28T18:24:35.303Z,3.72
2022-11-28T18:28:34.883Z,3.72
2022-11-28T18:32:34.910Z,3.75
2022-11-28T18:36:35.545Z,3.70
2022-11-28T18:40:38.871Z,3.76
2022-11-28T18:44:38.941Z,3.69
2022-11-28T18:48:39.819Z,3.60
2022-11-28T18:52:41.413Z,3.75
2022-11-28T18:56:46.871Z,3.52
2022-11-28T19:00:46.190Z,3.66
2022-11-28T19:04:46.511Z,3.75
2022-11-28T19:08:45.820Z,3.87
2022-11-28T19:12:49.802Z,3.71
2022-11-28T19:16:50.058Z,3.90
2022-11-28T19:20:49.904Z,3.68
2022-11-28T19:24:56.878Z,3.86
2022-11-28T19:28:59.774Z,3.83
2022-11-28T19:32:59.561Z,3.74
2022-11-28T19:36:59.398Z,3.87
2022-11-28T19:41:00.600Z,3.88
2022-11-28T19:45:01.780Z,3.87
2022-11-28T19:49:02.566Z,3.84
2022-11-28T19:53:02.199Z,3.89
2022-11-28T19:57:02.167Z,3.92
2022-11-28T20:01:07.789Z,4.02
2022-11-28T20:05:08.223Z,4.05
2022-11-28T20:09:12.438Z,3.87
2022-11-28T20:13:11.769Z,3.61
2022-11-28T20:17:13.605Z,3.84
2022-11-28T20:21:15.329Z,3.48
2022-11-28T20:25:20.501Z,3.74
2022-11-28T20:29:26.347Z,3.63
2022-11-28T20:33:28.253Z,3.46
2022-11-28T20:37:27.889Z,3.52
2022-11-28T20:41:28.484Z,3.53
2022-11-28T20:45:28.389Z,3.66
2022-11-28T20:49:30.251Z,3.38
2022-11-28T20:53:29.640Z,3.63
2022-11-28T20:57:29.738Z,3.68
2022-11-28T21:01:30.628Z,3.53
2022-11-28T21:05:32.464Z,3.79
2022-11-28T21:09:32.016Z,3.69
2022-11-28T21:13:33.668Z,3.79
2022-11-28T21:17:33.338Z,3.87
2022-11-28T21:21:35.542Z,3.95
2022-11-28T21:25:40.024Z,3.95
2022-11-28T21:29:48.368Z,3.88
2022-11-28T21:33:49.903Z,3.56
2022-11-28T21:37:51.696Z,3.80
2022-11-28T21:41:52.783Z,3.72
2022-11-28T21:45:52.833Z,3.52
2022-11-28T21:49:53.235Z,3.79
2022-11-28T21:53:54.803Z,3.83
2022-11-28T21:57:57.314Z,3.67
2022-11-28T22:02:05.989Z,3.80
2022-11-28T22:06:17.195Z,3.51
2022-11-28T22:10:19.057Z,3.67
2022-11-28T22:14:19.225Z,3.73
2022-11-28T22:18:18.602Z,3.69
2022-11-28T22:22:18.537Z,3.72
2022-11-28T22:26:19.946Z,3.61
2022-11-28T22:30:19.709Z,3.72
2022-11-28T22:34:19.162Z,3.85
2022-11-28T22:38:20.289Z,3.98
2022-11-28T22:42:21.901Z,4.04
2022-11-28T22:46:21.587Z,3.92
2022-11-28T22:50:23.562Z,4.03
2022-11-28T22:54:23.109Z,4.02
2022-11-28T22:58:24.646Z,4.07
2022-11-28T23:02:25.164Z,4.07
2022-11-28T23:06:27.215Z,3.89
2022-11-28T23:10:27.158Z,3.97
2022-11-28T23:14:30.035Z,4.02
2022-11-28T23:18:30.529Z,3.93
2022-11-28T23:22:29.861Z,3.66
2022-11-28T23:26:31.376Z,3.81
2022-11-28T23:30:33.626Z,3.82
2022-11-28T23:34:33.727Z,3.58
2022-11-28T23:38:33.048Z,3.55
2022-11-28T23:42:32.081Z,3.46
2022-11-28T23:46:34.171Z,2.91
2022-11-28T23:50:33.527Z,3.34
2022-11-28T23:54:33.354Z,3.34
2022-11-28T23:58:33.373Z,3.15
